Halleck, Nevada
Current Conditions -  °F | °C
As of 8:56 PM on Thursday 30 Oct 2014 (Local Time) from KEKO Reporting Station
Clear Clear  
Wind Chill: 46°   Ceiling: Unl
Heat Index: 49°   Visibility: 10mi
Dew Point: 22°   Wind: 7mph
Humidity: 35%   Direction: 80°E
Pressure: 30.03"   Gusts: NA
Location:  40.95°N, 115.45°W
Report Text: KEKO 310356Z AUTO 08006KT 10SM CLR 09/M06 A3003 RMK AO2 SLP162 T00941056
Loading
Personal Weather Stations






























Interactive Weather Map
Tropical Storm Tracking
New forecast layout! Learn more

10-Day Weather Forecast

Advertisements
Track Severe Weather on mobile